Time;durP1;ratioP1;P1;durP2;ratioP2;P2;SDS_P1;SDS_P2;PMS_P1;PMS_P2;Temp;Humidity;BMP_temperature;BMP_pressure;BME280_temperature;BME280_humidity;BME280_pressure;Samples;Min_cycle;Max_cycle;Signal;HPM_P1;HPM_P2
2022/09/13 00:00:05;;;;;;;;;;;;;;;;;;350088;28;996;-64
2022/09/13 00:00:15;;;;;;;;;;;;;;;;;;350052;28;940;-63
2022/09/13 00:00:26;;;;;;;;;;;;;;;;;;350037;28;924;-64
2022/09/13 00:00:37;;;;;;;;;;;;;;;;;;350081;28;873;-64
2022/09/13 00:00:47;;;;;;;;;;;;;;;;;;350013;28;1349;-63
2022/09/13 00:00:58;;;;;;;;;;;;;;;;;;350057;28;829;-63
2022/09/13 00:01:08;;;;;;;;;;;;;;;;;;349999;28;999;-63
2022/09/13 00:01:19;;;;;;;;;;;;;;;;;;350016;28;1003;-63
2022/09/13 00:01:29;;;;;;;;;;;;;;;;;;350073;28;814;-64
2022/09/13 00:01:39;;;;;;;;;;;;;;;;;;350056;28;929;-64
2022/09/13 00:01:49;;;;;;;;;;;;;;;;;;350037;28;1087;-64
2022/09/13 00:01:59;;;;;;;;;;;;;;;;;;350006;28;854;-63
2022/09/13 00:02:09;;;;;;;;;;;;;;;;;;350025;28;945;-63
2022/09/13 00:02:20;;;;;;;;;;;;;;;;;;350108;28;806;-63
2022/09/13 00:02:30;;;;;;;;;;;;;;;;;;350073;28;909;-63
2022/09/13 00:02:40;;;;;;;;;;;;;;;;;;350066;28;916;-63
2022/09/13 00:02:51;;;;;;;;;;;;;;;;;;350058;28;916;-63
2022/09/13 00:03:01;;;;;;;;;;;;;;;;;;349984;28;960;-63
2022/09/13 00:03:11;;;;;;;;;;;;;;;;;;350058;28;861;-63
2022/09/13 00:03:22;;;;;;;;;;;;;;;;;;350041;28;949;-63
2022/09/13 00:03:32;;;;;;;;;;;;;;;;;;350062;28;917;-63
2022/09/13 00:03:42;;;;;;;;;;;;;;;;;;350086;28;999;-63
2022/09/13 00:03:52;;;;;;;;;;;;;;;;;;349870;28;1176;-64
2022/09/13 00:04:03;;;;;;;;;;;;;;;;;;349391;28;1805;-64
2022/09/13 00:04:13;;;;;;;;;;;;;;;;;;349545;28;1551;-63
2022/09/13 00:04:24;;;;;;;;;;;;;;;;;;350034;28;937;-63
2022/09/13 00:04:34;;;;;;;;;;;;;;;;;;350040;28;992;-63
2022/09/13 00:04:44;;;;;;;;;;;;;;;;;;350055;28;829;-63
2022/09/13 00:04:54;;;;;;;;;;;;;;;;;;350105;28;988;-63
2022/09/13 00:05:04;;;;;;;;;;;;;;;;;;350042;28;964;-63
2022/09/13 00:05:15;;;;;;;;;;;;;;;;;;350034;28;844;-63
2022/09/13 00:05:25;;;;;;;;;;;;;;;;;;350054;28;991;-63
2022/09/13 00:05:36;;;;;;;;;;;;;;;;;;350067;28;850;-64
2022/09/13 00:05:46;;;;;;;;;;;;;;;;;;350114;28;925;-64
2022/09/13 00:05:57;;;;;;;;;;;;;;;;;;350089;28;959;-63
2022/09/13 00:06:12;;;;;;;;;;;;;;;;;;349983;28;1067;-63
2022/09/13 00:06:22;;;;;;;;;;;;;;;;;;350049;28;912;-63
2022/09/13 00:06:32;;;;;;;;;;;;;;;;;;350030;28;944;-63
2022/09/13 00:06:42;;;;;;;;;;;;;;;;;;350092;28;820;-64
2022/09/13 00:06:52;;;;;;;;;;;;;;;;;;350089;28;927;-63
2022/09/13 00:07:03;;;;;;;;;;;;;;;;;;350070;28;932;-63
2022/09/13 00:07:13;;;;;;;;;;;;;;;;;;350058;28;912;-63
2022/09/13 00:07:23;;;;;;;;;;;;;;;;;;350020;28;936;-64
2022/09/13 00:07:33;;;;;;;;;;;;;;;;;;350047;28;1054;-63
2022/09/13 00:07:44;;;;;;;;;;;;;;;;;;350068;28;932;-63
2022/09/13 00:07:54;;;;;;;;;;;;;;;;;;350073;28;964;-64
2022/09/13 00:08:05;;;;;;;;;;;;;;;;;;350045;28;800;-64
2022/09/13 00:08:16;;;;;;;;;;;;;;;;;;350000;28;928;-63
2022/09/13 00:08:26;;;;;;;;;;;;;;;;;;350058;28;911;-63
2022/09/13 00:08:36;;;;;;;;;;;;;;;;;;350080;28;820;-63
2022/09/13 00:08:47;;;;;;;;;;;;;;;;;;349993;28;896;-64
2022/09/13 00:08:59;;;;;;;;;;;;;;;;;;350048;28;987;-63
2022/09/13 00:09:09;;;;;;;;;;;;;;;;;;350029;28;1062;-63
2022/09/13 00:09:19;;;;;;;;;;;;;;;;;;350038;28;900;-63
2022/09/13 00:09:30;;;;;;;;;;;;;;;;;;349970;28;849;-63
2022/09/13 00:09:40;;;;;;;;;;;;;;;;;;350097;28;809;-64
2022/09/13 00:09:51;;;;;;;;;;;;;;;;;;350066;28;823;-63
2022/09/13 00:10:01;;;;;;;;;;;;;;;;;;350090;28;805;-64
2022/09/13 00:10:11;;;;;;;;;;;;;;;;;;350045;28;905;-64
2022/09/13 00:10:22;;;;;;;;;;;;;;;;;;349948;28;912;-63
2022/09/13 00:10:33;;;;;;;;;;;;;;;;;;350083;28;1201;-63
2022/09/13 00:10:44;;;;;;;;;;;;;;;;;;350068;28;1000;-63
2022/09/13 00:10:54;;;;;;;;;;;;;;;;;;350027;28;963;-63
2022/09/13 00:11:04;;;;;;;;;;;;;;;;;;350100;28;776;-64
2022/09/13 00:11:17;;;;;;;;;;;;;;;;;;350029;28;983;-63
2022/09/13 00:11:28;;;;;;;;;;;;;;;;;;350011;28;998;-63
2022/09/13 00:11:38;;;;;;;;;;;;;;;;;;350061;28;975;-63
2022/09/13 00:11:50;;;;;;;;;;;;;;;;;;350144;28;790;-63
2022/09/13 00:12:00;;;;;;;;;;;;;;;;;;350037;28;980;-63
2022/09/13 00:12:10;;;;;;;;;;;;;;;;;;350057;28;1041;-63
2022/09/13 00:12:20;;;;;;;;;;;;;;;;;;349925;28;967;-63
2022/09/13 00:12:31;;;;;;;;;;;;;;;;;;350056;28;950;-63
2022/09/13 00:12:41;;;;;;;;;;;;;;;;;;350049;28;1006;-63
2022/09/13 00:12:52;;;;;;;;;;;;;;;;;;349976;28;940;-63
2022/09/13 00:13:02;;;;;;;;;;;;;;;;;;350101;28;816;-63
2022/09/13 00:13:13;;;;;;;;;;;;;;;;;;350034;28;960;-63
2022/09/13 00:13:23;;;;;;;;;;;;;;;;;;349906;28;1977;-63
2022/09/13 00:13:33;;;;;;;;;;;;;;;;;;350047;28;1110;-63
2022/09/13 00:13:44;;;;;;;;;;;;;;;;;;350087;28;841;-64
2022/09/13 00:13:55;;;;;;;;;;;;;;;;;;350060;28;770;-64
2022/09/13 00:14:05;;;;;;;;;;;;;;;;;;350041;28;912;-63
2022/09/13 00:14:15;;;;;;;;;;;;;;;;;;350071;28;868;-64
2022/09/13 00:14:25;;;;;;;;;;;;;;;;;;349946;28;912;-64
2022/09/13 00:14:35;;;;;;;;;;;;;;;;;;350039;28;913;-64
2022/09/13 00:14:46;;;;;;;;;;;;;;;;;;350053;28;908;-63
2022/09/13 00:14:56;;;;;;;;;;;;;;;;;;350012;28;999;-63
2022/09/13 00:15:07;;;;;;;;;;;;;;;;;;350003;28;740;-63
2022/09/13 00:15:18;;;;;;;;;;;;;;;;;;350088;28;873;-64
2022/09/13 00:15:28;;;;;;;;;;;;;;;;;;349996;27;916;-63
2022/09/13 00:15:45;;;;;;;;;;;;;;;;;;350012;28;1094;-63
2022/09/13 00:15:55;;;;;;;;;;;;;;;;;;350022;28;904;-64
2022/09/13 00:16:09;;;;;;;;;;;;;;;;;;350031;28;928;-63
2022/09/13 00:16:21;;;;;;;;;;;;;;;;;;350052;28;971;-64
2022/09/13 00:16:32;;;;;;;;;;;;;;;;;;349954;28;769;-63
2022/09/13 00:16:42;;;;;;;;;;;;;;;;;;350038;28;928;-63
2022/09/13 00:16:52;;;;;;;;;;;;;;;;;;350045;28;841;-63
2022/09/13 00:17:02;;;;;;;;;;;;;;;;;;350037;28;921;-64
2022/09/13 00:17:12;;;;;;;;;;;;;;;;;;350051;28;944;-64
2022/09/13 00:17:23;;;;;;;;;;;;;;;;;;350075;28;821;-64
2022/09/13 00:17:33;;;;;;;;;;;;;;;;;;350021;28;881;-63
2022/09/13 00:17:43;;;;;;;;;;;;;;;;;;350069;28;967;-63
2022/09/13 00:17:54;;;;;;;;;;;;;;;;;;350044;28;971;-63
2022/09/13 00:18:04;;;;;;;;;;;;;;;;;;349998;28;936;-63
2022/09/13 00:18:14;;;;;;;;;;;;;;;;;;349137;28;1762;-63
2022/09/13 00:18:25;;;;;;;;;;;;;;;;;;348948;28;1566;-63
2022/09/13 00:18:35;;;;;;;;;;;;;;;;;;348654;28;956;-63
2022/09/13 00:18:46;;;;;;;;;;;;;;;;;;348669;28;983;-63
2022/09/13 00:18:58;;;;;;;;;;;;;;;;;;348719;28;864;-63
2022/09/13 00:19:08;;;;;;;;;;;;;;;;;;348619;28;953;-63
2022/09/13 00:19:18;;;;;;;;;;;;;;;;;;348681;28;979;-63
2022/09/13 00:19:28;;;;;;;;;;;;;;;;;;348697;28;771;-63
2022/09/13 00:19:39;;;;;;;;;;;;;;;;;;348621;28;834;-63
2022/09/13 00:19:49;;;;;;;;;;;;;;;;;;348670;28;996;-63
2022/09/13 00:19:59;;;;;;;;;;;;;;;;;;348690;28;933;-63
2022/09/13 00:20:10;;;;;;;;;;;;;;;;;;348688;28;846;-63
2022/09/13 00:20:20;;;;;;;;;;;;;;;;;;348613;28;1201;-63
2022/09/13 00:20:30;;;;;;;;;;;;;;;;;;348238;28;1888;-63
2022/09/13 00:20:40;;;;;;;;;;;;;;;;;;349622;28;1317;-63
2022/09/13 00:20:51;;;;;;;;;;;;;;;;;;350027;28;920;-64
2022/09/13 00:21:08;;;;;;;;;;;;;;;;;;351158;28;1295;-63
2022/09/13 00:21:19;;;;;;;;;;;;;;;;;;351415;28;770;-64
2022/09/13 00:21:29;;;;;;;;;;;;;;;;;;351418;28;912;-63
2022/09/13 00:21:40;;;;;;;;;;;;;;;;;;351376;28;1476;-63
2022/09/13 00:21:50;;;;;;;;;;;;;;;;;;351418;28;818;-63
2022/09/13 00:22:00;;;;;;;;;;;;;;;;;;351448;28;948;-63
2022/09/13 00:22:10;;;;;;;;;;;;;;;;;;351381;28;1007;-63
2022/09/13 00:22:20;;;;;;;;;;;;;;;;;;351460;28;911;-64
2022/09/13 00:22:31;;;;;;;;;;;;;;;;;;351413;28;770;-63
2022/09/13 00:22:41;;;;;;;;;;;;;;;;;;351389;28;1087;-63
2022/09/13 00:22:51;;;;;;;;;;;;;;;;;;351369;28;864;-63
2022/09/13 00:23:01;;;;;;;;;;;;;;;;;;351439;28;912;-63
2022/09/13 00:23:11;;;;;;;;;;;;;;;;;;351358;28;1134;-63
2022/09/13 00:23:22;;;;;;;;;;;;;;;;;;351473;28;853;-63
2022/09/13 00:23:32;;;;;;;;;;;;;;;;;;351451;28;829;-63
2022/09/13 00:23:43;;;;;;;;;;;;;;;;;;351460;28;931;-63
2022/09/13 00:23:53;;;;;;;;;;;;;;;;;;351374;28;982;-63
2022/09/13 00:24:04;;;;;;;;;;;;;;;;;;351465;28;817;-63
2022/09/13 00:24:14;;;;;;;;;;;;;;;;;;351431;28;987;-63
2022/09/13 00:24:24;;;;;;;;;;;;;;;;;;351424;28;905;-63
2022/09/13 00:24:36;;;;;;;;;;;;;;;;;;351434;28;856;-63
2022/09/13 00:24:46;;;;;;;;;;;;;;;;;;351441;28;979;-63
2022/09/13 00:24:56;;;;;;;;;;;;;;;;;;351383;28;905;-63
2022/09/13 00:25:07;;;;;;;;;;;;;;;;;;351425;28;900;-63
2022/09/13 00:25:17;;;;;;;;;;;;;;;;;;351425;28;920;-64
2022/09/13 00:25:27;;;;;;;;;;;;;;;;;;351404;28;936;-63
2022/09/13 00:25:38;;;;;;;;;;;;;;;;;;351422;28;924;-63
2022/09/13 00:25:48;;;;;;;;;;;;;;;;;;351438;28;920;-63
2022/09/13 00:26:05;;;;;;;;;;;;;;;;;;351389;28;999;-63
2022/09/13 00:26:17;;;;;;;;;;;;;;;;;;351415;28;905;-63
2022/09/13 00:26:27;;;;;;;;;;;;;;;;;;351436;28;936;-63
2022/09/13 00:26:37;;;;;;;;;;;;;;;;;;351374;28;940;-63
2022/09/13 00:26:48;;;;;;;;;;;;;;;;;;351444;28;960;-63
2022/09/13 00:26:58;;;;;;;;;;;;;;;;;;351442;28;814;-63
2022/09/13 00:27:10;;;;;;;;;;;;;;;;;;351447;28;781;-63
2022/09/13 00:27:20;;;;;;;;;;;;;;;;;;351365;28;964;-63
2022/09/13 00:27:34;;;;;;;;;;;;;;;;;;351394;28;825;-63
2022/09/13 00:27:44;;;;;;;;;;;;;;;;;;351403;28;1019;-63
2022/09/13 00:27:54;;;;;;;;;;;;;;;;;;351471;28;928;-63
2022/09/13 00:28:04;;;;;;;;;;;;;;;;;;351399;28;968;-63
2022/09/13 00:28:15;;;;;;;;;;;;;;;;;;351451;28;932;-64
2022/09/13 00:28:25;;;;;;;;;;;;;;;;;;351439;28;916;-63
2022/09/13 00:28:35;;;;;;;;;;;;;;;;;;351440;28;983;-64
2022/09/13 00:28:53;;;;;;;;;;;;;;;;;;351475;28;987;-63
2022/09/13 00:29:03;;;;;;;;;;;;;;;;;;350856;27;1240;-63
2022/09/13 00:29:13;;;;;;;;;;;;;;;;;;350060;28;841;-64
2022/09/13 00:29:23;;;;;;;;;;;;;;;;;;350043;28;956;-63
2022/09/13 00:29:33;;;;;;;;;;;;;;;;;;350029;28;845;-63
2022/09/13 00:29:44;;;;;;;;;;;;;;;;;;349981;28;917;-64
2022/09/13 00:29:55;;;;;;;;;;;;;;;;;;350015;28;932;-63
2022/09/13 00:30:06;;;;;;;;;;;;;;;;;;349994;28;829;-63
2022/09/13 00:30:16;;;;;;;;;;;;;;;;;;350050;28;924;-63
2022/09/13 00:30:26;;;;;;;;;;;;;;;;;;349958;28;853;-64
2022/09/13 00:30:36;;;;;;;;;;;;;;;;;;350041;28;1039;-63
2022/09/13 00:30:46;;;;;;;;;;;;;;;;;;349993;28;920;-63
2022/09/13 00:31:04;;;;;;;;;;;;;;;;;;350016;28;897;-63
2022/09/13 00:31:14;;;;;;;;;;;;;;;;;;349872;28;1080;-63
2022/09/13 00:31:26;;;;;;;;;;;;;;;;;;349987;28;1019;-64
2022/09/13 00:31:36;;;;;;;;;;;;;;;;;;349987;28;1120;-63
2022/09/13 00:31:46;;;;;;;;;;;;;;;;;;350039;28;833;-63
2022/09/13 00:31:56;;;;;;;;;;;;;;;;;;350001;28;921;-64
2022/09/13 00:32:07;;;;;;;;;;;;;;;;;;349392;28;1738;-63
2022/09/13 00:32:17;;;;;;;;;;;;;;;;;;349537;28;1515;-64
2022/09/13 00:32:27;;;;;;;;;;;;;;;;;;350057;28;857;-64
2022/09/13 00:32:38;;;;;;;;;;;;;;;;;;350053;28;868;-64
2022/09/13 00:32:48;;;;;;;;;;;;;;;;;;349984;28;913;-64
2022/09/13 00:32:58;;;;;;;;;;;;;;;;;;349995;28;972;-63
2022/09/13 00:33:09;;;;;;;;;;;;;;;;;;349965;28;1056;-63
2022/09/13 00:33:19;;;;;;;;;;;;;;;;;;349983;28;975;-64
2022/09/13 00:33:29;;;;;;;;;;;;;;;;;;349947;28;1910;-64
2022/09/13 00:33:39;;;;;;;;;;;;;;;;;;350015;28;869;-63
2022/09/13 00:33:50;;;;;;;;;;;;;;;;;;349986;28;900;-63
2022/09/13 00:34:00;;;;;;;;;;;;;;;;;;350036;28;932;-63
2022/09/13 00:34:10;;;;;;;;;;;;;;;;;;349999;28;917;-63
2022/09/13 00:34:21;;;;;;;;;;;;;;;;;;349935;28;1013;-64
2022/09/13 00:34:31;;;;;;;;;;;;;;;;;;350009;28;996;-63
2022/09/13 00:34:41;;;;;;;;;;;;;;;;;;349986;28;879;-63
2022/09/13 00:34:51;;;;;;;;;;;;;;;;;;349950;28;924;-64
2022/09/13 00:35:02;;;;;;;;;;;;;;;;;;350024;28;932;-63
2022/09/13 00:35:12;;;;;;;;;;;;;;;;;;350008;28;959;-63
2022/09/13 00:35:22;;;;;;;;;;;;;;;;;;349944;28;980;-64
2022/09/13 00:35:34;;;;;;;;;;;;;;;;;;350047;28;964;-63
2022/09/13 00:35:44;;;;;;;;;;;;;;;;;;350087;28;924;-63
2022/09/13 00:35:54;;;;;;;;;;;;;;;;;;349982;28;1005;-64
2022/09/13 00:36:06;;;;;;;;;;;;;;;;;;350052;28;936;-64
2022/09/13 00:36:16;;;;;;;;;;;;;;;;;;350079;28;776;-64
2022/09/13 00:36:27;;;;;;;;;;;;;;;;;;349990;28;916;-64
2022/09/13 00:36:37;;;;;;;;;;;;;;;;;;350053;28;909;-63
2022/09/13 00:36:47;;;;;;;;;;;;;;;;;;350050;28;929;-63
2022/09/13 00:36:58;;;;;;;;;;;;;;;;;;349990;28;788;-64
2022/09/13 00:37:08;;;;;;;;;;;;;;;;;;350045;28;809;-63
2022/09/13 00:37:18;;;;;;;;;;;;;;;;;;350043;28;814;-63
2022/09/13 00:37:29;;;;;;;;;;;;;;;;;;350005;28;992;-63
2022/09/13 00:37:39;;;;;;;;;;;;;;;;;;349986;28;979;-64
2022/09/13 00:37:49;;;;;;;;;;;;;;;;;;349823;28;875;-63
2022/09/13 00:38:00;;;;;;;;;;;;;;;;;;349791;28;1008;-63
2022/09/13 00:38:10;;;;;;;;;;;;;;;;;;349934;28;771;-63
2022/09/13 00:38:21;;;;;;;;;;;;;;;;;;350023;28;1018;-64
2022/09/13 00:38:31;;;;;;;;;;;;;;;;;;350007;28;1004;-63
2022/09/13 00:38:41;;;;;;;;;;;;;;;;;;349982;28;930;-63
2022/09/13 00:38:52;;;;;;;;;;;;;;;;;;350042;28;909;-64
2022/09/13 00:39:02;;;;;;;;;;;;;;;;;;350027;28;914;-63
2022/09/13 00:39:12;;;;;;;;;;;;;;;;;;349998;28;1071;-63
2022/09/13 00:39:22;;;;;;;;;;;;;;;;;;350026;28;841;-63
2022/09/13 00:39:32;;;;;;;;;;;;;;;;;;349910;28;986;-63
2022/09/13 00:39:42;;;;;;;;;;;;;;;;;;349996;28;1027;-63
2022/09/13 00:39:53;;;;;;;;;;;;;;;;;;350049;28;900;-63
2022/09/13 00:40:03;;;;;;;;;;;;;;;;;;350035;28;908;-63
2022/09/13 00:40:14;;;;;;;;;;;;;;;;;;350035;28;981;-63
2022/09/13 00:40:24;;;;;;;;;;;;;;;;;;349873;28;944;-63
2022/09/13 00:40:37;;;;;;;;;;;;;;;;;;349935;28;975;-63
2022/09/13 00:40:47;;;;;;;;;;;;;;;;;;349878;28;960;-64
2022/09/13 00:40:57;;;;;;;;;;;;;;;;;;349893;28;937;-64
2022/09/13 00:41:10;;;;;;;;;;;;;;;;;;349897;28;928;-64
2022/09/13 00:41:20;;;;;;;;;;;;;;;;;;349809;28;1039;-64
2022/09/13 00:41:30;;;;;;;;;;;;;;;;;;349841;28;980;-63
2022/09/13 00:41:40;;;;;;;;;;;;;;;;;;349929;28;963;-63
2022/09/13 00:41:50;;;;;;;;;;;;;;;;;;349906;28;952;-64
2022/09/13 00:42:01;;;;;;;;;;;;;;;;;;349864;28;1004;-63
2022/09/13 00:42:11;;;;;;;;;;;;;;;;;;349910;28;916;-63
2022/09/13 00:42:26;;;;;;;;;;;;;;;;;;349962;28;909;-63
2022/09/13 00:42:36;;;;;;;;;;;;;;;;;;349971;28;933;-63
2022/09/13 00:42:47;;;;;;;;;;;;;;;;;;350019;28;975;-63
2022/09/13 00:42:57;;;;;;;;;;;;;;;;;;349981;28;1075;-63
2022/09/13 00:43:18;;;;;;;;;;;;;;;;;;349884;28;1347;-63
2022/09/13 00:43:46;;;;;;;;;;;;;;;;;;349972;28;913;-63
2022/09/13 00:43:58;;;;;;;;;;;;;;;;;;349993;28;799;-63
2022/09/13 00:44:27;;;;;;;;;;;;;;;;;;349973;28;929;-63
2022/09/13 00:44:51;;;;;;;;;;;;;;;;;;349958;28;968;-63
2022/09/13 00:45:13;;;;;;;;;;;;;;;;;;349908;28;991;-63
2022/09/13 00:45:23;;;;;;;;;;;;;;;;;;349956;28;975;-63
2022/09/13 00:45:34;;;;;;;;;;;;;;;;;;349975;28;1007;-63
2022/09/13 00:45:45;;;;;;;;;;;;;;;;;;349924;28;1020;-63
2022/09/13 00:45:55;;;;;;;;;;;;;;;;;;350027;28;936;-63
2022/09/13 00:46:05;;;;;;;;;;;;;;;;;;349975;28;1011;-64
2022/09/13 00:46:33;;;;;;;;;;;;;;;;;;350017;28;857;-63
2022/09/13 00:46:47;;;;;;;;;;;;;;;;;;349984;28;960;-63
2022/09/13 00:46:57;;;;;;;;;;;;;;;;;;349990;28;944;-63
2022/09/13 00:47:07;;;;;;;;;;;;;;;;;;349943;28;960;-64
2022/09/13 00:47:19;;;;;;;;;;;;;;;;;;350007;28;889;-63
2022/09/13 00:47:36;;;;;;;;;;;;;;;;;;349994;28;932;-63
2022/09/13 00:47:49;;;;;;;;;;;;;;;;;;349966;28;904;-63
2022/09/13 00:48:04;;;;;;;;;;;;;;;;;;349980;28;944;-63
2022/09/13 00:48:17;;;;;;;;;;;;;;;;;;350046;28;976;-63
2022/09/13 00:48:28;;;;;;;;;;;;;;;;;;348562;28;842;-63
2022/09/13 00:48:38;;;;;;;;;;;;;;;;;;348601;28;1028;-63
2022/09/13 00:48:51;;;;;;;;;;;;;;;;;;348657;28;936;-63
2022/09/13 00:49:11;;;;;;;;;;;;;;;;;;348585;28;996;-63
2022/09/13 00:49:26;;;;;;;;;;;;;;;;;;348659;28;854;-63
2022/09/13 00:49:38;;;;;;;;;;;;;;;;;;348608;28;979;-63
2022/09/13 00:49:50;;;;;;;;;;;;;;;;;;348618;28;980;-64
2022/09/13 00:50:18;;;;;;;;;;;;;;;;;;348648;28;805;-63
2022/09/13 00:50:32;;;;;;;;;;;;;;;;;;348583;28;1003;-63
2022/09/13 00:50:46;;;;;;;;;;;;;;;;;;348829;28;1361;-63
2022/09/13 00:50:56;;;;;;;;;;;;;;;;;;348627;28;995;-63
2022/09/13 00:51:08;;;;;;;;;;;;;;;;;;348587;28;822;-63
2022/09/13 00:51:19;;;;;;;;;;;;;;;;;;348675;28;778;-63
2022/09/13 00:51:29;;;;;;;;;;;;;;;;;;348617;28;992;-63
2022/09/13 00:51:41;;;;;;;;;;;;;;;;;;348609;28;928;-63
2022/09/13 00:51:55;;;;;;;;;;;;;;;;;;348624;28;925;-63
2022/09/13 00:52:12;;;;;;;;;;;;;;;;;;348570;28;1063;-63
2022/09/13 00:52:24;;;;;;;;;;;;;;;;;;348557;28;1067;-63
2022/09/13 00:52:36;;;;;;;;;;;;;;;;;;348598;28;917;-63
2022/09/13 00:52:57;;;;;;;;;;;;;;;;;;348650;28;885;-63
2022/09/13 00:53:10;;;;;;;;;;;;;;;;;;351155;28;1298;-63
2022/09/13 00:53:31;;;;;;;;;;;;;;;;;;350390;28;917;-64
2022/09/13 00:53:45;;;;;;;;;;;;;;;;;;348515;28;972;-63
2022/09/13 00:53:58;;;;;;;;;;;;;;;;;;348622;28;783;-63
2022/09/13 00:54:08;;;;;;;;;;;;;;;;;;348578;28;952;-63
2022/09/13 00:54:21;;;;;;;;;;;;;;;;;;348511;28;1059;-64
2022/09/13 00:54:35;;;;;;;;;;;;;;;;;;348629;28;1012;-64
2022/09/13 00:54:48;;;;;;;;;;;;;;;;;;348642;28;925;-63
2022/09/13 00:55:01;;;;;;;;;;;;;;;;;;348573;28;957;-63
2022/09/13 00:55:17;;;;;;;;;;;;;;;;;;348639;28;933;-63
2022/09/13 00:55:53;;;;;;;;;;;;;;;;;;348630;28;786;-63
2022/09/13 00:56:09;;;;;;;;;;;;;;;;;;349331;28;1324;-63
2022/09/13 00:56:23;;;;;;;;;;;;;;;;;;348548;28;1047;-63
2022/09/13 00:56:40;;;;;;;;;;;;;;;;;;348591;28;791;-63
2022/09/13 00:56:53;;;;;;;;;;;;;;;;;;348615;28;937;-63
2022/09/13 00:57:04;;;;;;;;;;;;;;;;;;348604;28;971;-63
2022/09/13 00:57:16;;;;;;;;;;;;;;;;;;348591;28;979;-63
2022/09/13 00:57:27;;;;;;;;;;;;;;;;;;348636;28;896;-63
2022/09/13 00:57:39;;;;;;;;;;;;;;;;;;348588;28;1007;-63
2022/09/13 00:57:50;;;;;;;;;;;;;;;;;;348650;28;956;-63
2022/09/13 00:58:03;;;;;;;;;;;;;;;;;;348603;28;885;-63
2022/09/13 00:58:26;;;;;;;;;;;;;;;;;;348604;28;779;-63
2022/09/13 00:58:40;;;;;;;;;;;;;;;;;;348642;28;862;-63
2022/09/13 00:58:57;;;;;;;;;;;;;;;;;;348616;28;925;-63
2022/09/13 00:59:22;;;;;;;;;;;;;;;;;;348607;28;1004;-63
2022/09/13 00:59:34;;;;;;;;;;;;;;;;;;348626;28;1217;-63
2022/09/13 00:59:49;;;;;;;;;;;;;;;;;;348676;28;784;-63
2022/09/13 00:59:59;;;;;;;;;;;;;;;;;;348622;28;979;-63
2022/09/13 01:00:15;;;;;;;;;;;;;;;;;;348203;28;1876;-63
2022/09/13 01:00:25;;;;;;;;;;;;;;;;;;348567;28;979;-63
2022/09/13 01:00:37;;;;;;;;;;;;;;;;;;348607;28;940;-63
2022/09/13 01:00:48;;;;;;;;;;;;;;;;;;348568;28;1083;-63
2022/09/13 01:01:00;;;;;;;;;;;;;;;;;;348628;28;996;-64
2022/09/13 01:01:12;;;;;;;;;;;;;;;;;;348693;28;838;-63
2022/09/13 01:01:24;;;;;;;;;;;;;;;;;;348644;28;845;-64
2022/09/13 01:01:45;;;;;;;;;;;;;;;;;;348625;28;975;-64
2022/09/13 01:01:56;;;;;;;;;;;;;;;;;;352530;28;1321;-64
2022/09/13 01:02:06;;;;;;;;;;;;;;;;;;351063;28;932;-64
2022/09/13 01:02:18;;;;;;;;;;;;;;;;;;348524;28;837;-64
2022/09/13 01:02:28;;;;;;;;;;;;;;;;;;348510;28;1201;-63
2022/09/13 01:02:40;;;;;;;;;;;;;;;;;;348597;28;983;-63
2022/09/13 01:02:59;;;;;;;;;;;;;;;;;;348590;28;1050;-63
2022/09/13 01:03:11;;;;;;;;;;;;;;;;;;348223;28;1857;-64
2022/09/13 01:03:23;;;;;;;;;;;;;;;;;;348646;28;893;-64
2022/09/13 01:03:34;;;;;;;;;;;;;;;;;;348607;28;956;-63
2022/09/13 01:03:46;;;;;;;;;;;;;;;;;;348604;28;929;-63
2022/09/13 01:03:56;;;;;;;;;;;;;;;;;;348434;28;1069;-64
2022/09/13 01:04:06;;;;;;;;;;;;;;;;;;348605;28;853;-63
2022/09/13 01:04:18;;;;;;;;;;;;;;;;;;348611;28;941;-64
2022/09/13 01:04:30;;;;;;;;;;;;;;;;;;348558;28;821;-63
2022/09/13 01:04:41;;;;;;;;;;;;;;;;;;348561;28;1169;-64
2022/09/13 01:04:51;;;;;;;;;;;;;;;;;;348639;28;848;-63
2022/09/13 01:05:02;;;;;;;;;;;;;;;;;;348548;28;1126;-64
2022/09/13 01:05:14;;;;;;;;;;;;;;;;;;348616;28;972;-63
2022/09/13 01:05:26;;;;;;;;;;;;;;;;;;348646;28;930;-64
2022/09/13 01:05:41;;;;;;;;;;;;;;;;;;348559;28;916;-63
2022/09/13 01:05:57;;;;;;;;;;;;;;;;;;348673;28;933;-63
2022/09/13 01:06:10;;;;;;;;;;;;;;;;;;348612;28;834;-63
2022/09/13 01:06:22;;;;;;;;;;;;;;;;;;348651;28;929;-63
2022/09/13 01:06:34;;;;;;;;;;;;;;;;;;348504;28;979;-64
2022/09/13 01:06:45;;;;;;;;;;;;;;;;;;348610;28;1000;-63
2022/09/13 01:06:58;;;;;;;;;;;;;;;;;;348638;28;868;-63
2022/09/13 01:07:10;;;;;;;;;;;;;;;;;;348669;28;924;-63
2022/09/13 01:07:21;;;;;;;;;;;;;;;;;;348573;28;972;-64
2022/09/13 01:07:32;;;;;;;;;;;;;;;;;;348594;28;1027;-63
2022/09/13 01:07:42;;;;;;;;;;;;;;;;;;348532;28;1079;-63
2022/09/13 01:07:54;;;;;;;;;;;;;;;;;;348626;28;929;-63
2022/09/13 01:08:11;;;;;;;;;;;;;;;;;;348558;28;941;-63
2022/09/13 01:08:21;;;;;;;;;;;;;;;;;;348575;28;929;-64
2022/09/13 01:08:33;;;;;;;;;;;;;;;;;;348522;28;953;-64
2022/09/13 01:08:44;;;;;;;;;;;;;;;;;;348607;28;846;-63
2022/09/13 01:08:57;;;;;;;;;;;;;;;;;;348203;28;1924;-63
2022/09/13 01:09:10;;;;;;;;;;;;;;;;;;349834;28;1337;-63
2022/09/13 01:09:21;;;;;;;;;;;;;;;;;;348540;28;936;-63
2022/09/13 01:09:32;;;;;;;;;;;;;;;;;;348567;28;952;-63
2022/09/13 01:09:44;;;;;;;;;;;;;;;;;;348552;28;801;-63
2022/09/13 01:09:55;;;;;;;;;;;;;;;;;;348632;28;925;-63
2022/09/13 01:10:06;;;;;;;;;;;;;;;;;;348554;28;1015;-64
2022/09/13 01:10:16;;;;;;;;;;;;;;;;;;348651;28;865;-63
2022/09/13 01:10:27;;;;;;;;;;;;;;;;;;348609;28;833;-64
2022/09/13 01:10:40;;;;;;;;;;;;;;;;;;348554;28;972;-63
2022/09/13 01:10:51;;;;;;;;;;;;;;;;;;348489;28;991;-63
2022/09/13 01:11:03;;;;;;;;;;;;;;;;;;348617;28;1037;-63
2022/09/13 01:11:28;;;;;;;;;;;;;;;;;;348626;28;975;-63
2022/09/13 01:11:38;;;;;;;;;;;;;;;;;;348557;28;936;-63
2022/09/13 01:11:59;;;;;;;;;;;;;;;;;;348588;28;984;-63
2022/09/13 01:12:30;;;;;;;;;;;;;;;;;;348585;28;975;-64
2022/09/13 01:12:47;;;;;;;;;;;;;;;;;;348596;28;945;-63
2022/09/13 01:13:01;;;;;;;;;;;;;;;;;;348586;28;865;-64
2022/09/13 01:13:14;;;;;;;;;;;;;;;;;;348575;28;913;-63
2022/09/13 01:13:27;;;;;;;;;;;;;;;;;;348534;28;1902;-63
2022/09/13 01:13:37;;;;;;;;;;;;;;;;;;348564;28;925;-63
2022/09/13 01:13:47;;;;;;;;;;;;;;;;;;348538;28;917;-64
2022/09/13 01:13:58;;;;;;;;;;;;;;;;;;348589;28;1000;-64
2022/09/13 01:14:08;;;;;;;;;;;;;;;;;;348591;28;904;-63
2022/09/13 01:14:19;;;;;;;;;;;;;;;;;;348617;28;1036;-63
2022/09/13 01:14:33;;;;;;;;;;;;;;;;;;348611;28;964;-63
2022/09/13 01:14:44;;;;;;;;;;;;;;;;;;348539;28;897;-63
2022/09/13 01:14:56;;;;;;;;;;;;;;;;;;348520;28;908;-63
2022/09/13 01:15:06;;;;;;;;;;;;;;;;;;348589;28;976;-63
2022/09/13 01:15:17;;;;;;;;;;;;;;;;;;348581;28;999;-64
2022/09/13 01:15:27;;;;;;;;;;;;;;;;;;348636;28;987;-63
2022/09/13 01:15:37;;;;;;;;;;;;;;;;;;348527;28;917;-63
2022/09/13 01:15:47;;;;;;;;;;;;;;;;;;348588;28;932;-63
2022/09/13 01:15:58;;;;;;;;;;;;;;;;;;348631;28;841;-63
2022/09/13 01:16:08;;;;;;;;;;;;;;;;;;348603;28;929;-63
2022/09/13 01:16:19;;;;;;;;;;;;;;;;;;348552;28;916;-63
2022/09/13 01:16:30;;;;;;;;;;;;;;;;;;348507;28;890;-63
2022/09/13 01:16:40;;;;;;;;;;;;;;;;;;348589;28;995;-63
2022/09/13 01:16:51;;;;;;;;;;;;;;;;;;348581;28;929;-63
2022/09/13 01:17:01;;;;;;;;;;;;;;;;;;348514;28;957;-63
2022/09/13 01:17:12;;;;;;;;;;;;;;;;;;348591;28;940;-63
2022/09/13 01:17:22;;;;;;;;;;;;;;;;;;348805;28;1437;-64
2022/09/13 01:17:32;;;;;;;;;;;;;;;;;;349984;28;802;-63
2022/09/13 01:17:43;;;;;;;;;;;;;;;;;;349934;28;953;-63
2022/09/13 01:17:53;;;;;;;;;;;;;;;;;;349960;28;812;-63
2022/09/13 01:18:04;;;;;;;;;;;;;;;;;;349999;28;980;-63
2022/09/13 01:18:15;;;;;;;;;;;;;;;;;;349938;28;925;-63
2022/09/13 01:18:25;;;;;;;;;;;;;;;;;;349927;28;1016;-64
2022/09/13 01:18:35;;;;;;;;;;;;;;;;;;350015;28;929;-63
2022/09/13 01:18:46;;;;;;;;;;;;;;;;;;349948;28;1051;-64
2022/09/13 01:18:56;;;;;;;;;;;;;;;;;;349969;28;853;-63
2022/09/13 01:19:06;;;;;;;;;;;;;;;;;;349903;28;855;-63
2022/09/13 01:19:16;;;;;;;;;;;;;;;;;;349984;28;800;-64
2022/09/13 01:19:26;;;;;;;;;;;;;;;;;;349893;28;959;-63
2022/09/13 01:19:37;;;;;;;;;;;;;;;;;;349994;28;897;-63
2022/09/13 01:19:47;;;;;;;;;;;;;;;;;;349974;28;1690;-63
2022/09/13 01:19:58;;;;;;;;;;;;;;;;;;349957;28;917;-64
2022/09/13 01:20:09;;;;;;;;;;;;;;;;;;349997;27;968;-63
2022/09/13 01:20:24;;;;;;;;;;;;;;;;;;349926;28;1011;-63
2022/09/13 01:20:47;;;;;;;;;;;;;;;;;;349922;28;929;-63
2022/09/13 01:21:16;;;;;;;;;;;;;;;;;;351283;28;1327;-63
2022/09/13 01:21:47;;;;;;;;;;;;;;;;;;348552;28;929;-63
2022/09/13 01:22:18;;;;;;;;;;;;;;;;;;348553;28;802;-63
2022/09/13 01:22:48;;;;;;;;;;;;;;;;;;348541;28;963;-64
2022/09/13 01:23:21;;;;;;;;;;;;;;;;;;348557;28;844;-63
2022/09/13 01:23:46;;;;;;;;;;;;;;;;;;348512;28;1263;-64
2022/09/13 01:24:14;;;;;;;;;;;;;;;;;;348498;28;1016;-64
2022/09/13 01:24:27;;;;;;;;;;;;;;;;;;348508;28;972;-64
2022/09/13 01:24:46;;;;;;;;;;;;;;;;;;348583;28;976;-64
2022/09/13 01:25:14;;;;;;;;;;;;;;;;;;348555;28;1209;-63
2022/09/13 01:25:37;;;;;;;;;;;;;;;;;;348506;28;960;-63
2022/09/13 01:25:47;;;;;;;;;;;;;;;;;;348576;28;941;-64
2022/09/13 01:26:15;;;;;;;;;;;;;;;;;;348548;28;913;-63
2022/09/13 01:26:25;;;;;;;;;;;;;;;;;;348563;28;949;-63
2022/09/13 01:26:54;;;;;;;;;;;;;;;;;;348605;28;925;-63
2022/09/13 01:27:10;;;;;;;;;;;;;;;;;;348541;28;996;-64